Time;durP1;ratioP1;P1;durP2;ratioP2;P2;SDS_P1;SDS_P2;PMS_P1;PMS_P2;Temp;Humidity;BMP_temperature;BMP_pressure;BME280_temperature;BME280_humidity;BME280_pressure;Samples;Min_cycle;Max_cycle;Signal;HPM_P1;HPM_P2
2023/07/17 00:00:06;;;;;;;0.60;0.10;;;22.10;1.00;;;;;;5014204;28;20480;-71
2023/07/17 04:01:47;;;;;;;1.47;0.63;;;19.70;1.00;;;;;;5453948;23;20953;-69
2023/07/17 04:04:15;;;;;;;1.43;0.63;;;19.70;1.00;;;;;;4993952;28;20959;-71
2023/07/17 04:06:43;;;;;;;0.60;0.20;;;19.20;1.00;;;;;;4994293;28;20445;-72
2023/07/17 04:09:11;;;;;;;0.60;0.17;;;19.10;1.00;;;;;;4994329;28;20947;-68
2023/07/17 04:11:40;;;;;;;0.60;0.17;;;19.20;1.00;;;;;;5003578;28;20807;-70
2023/07/17 04:14:11;;;;;;;0.60;0.20;;;19.20;1.00;;;;;;5013579;28;20484;-71
2023/07/17 04:16:39;;;;;;;1.10;0.47;;;19.50;1.00;;;;;;5014524;28;20447;-70
2023/07/17 04:19:08;;;;;;;0.60;0.10;;;19.30;1.00;;;;;;5014036;28;20863;-71
2023/07/17 04:21:36;;;;;;;0.60;0.17;;;19.40;1.00;;;;;;5013720;28;20465;-69
2023/07/17 04:24:04;;;;;;;0.60;0.10;;;19.20;1.00;;;;;;5013591;28;20484;-71
2023/07/17 04:26:32;;;;;;;0.70;0.30;;;19.10;1.00;;;;;;5013759;28;20962;-70
2023/07/17 04:29:00;;;;;;;0.80;0.73;;;18.90;1.00;;;;;;5013834;28;20540;-71
2023/07/17 04:31:28;;;;;;;0.60;0.20;;;18.80;1.00;;;;;;5013396;28;20468;-70
2023/07/17 04:33:56;;;;;;;5.30;1.37;;;18.80;1.00;;;;;;5013159;28;20516;-71
2023/07/17 04:36:25;;;;;;;2.30;1.03;;;18.70;1.00;;;;;;5014014;28;20443;-69
2023/07/17 04:38:53;;;;;;;4.23;1.27;;;18.70;1.00;;;;;;5013480;28;20459;-70
2023/07/17 04:41:21;;;;;;;0.90;0.73;;;18.70;1.00;;;;;;5013278;28;20495;-71
2023/07/17 04:43:49;;;;;;;0.70;0.47;;;18.80;1.00;;;;;;5012542;28;20538;-71
2023/07/17 04:46:17;;;;;;;0.60;0.20;;;18.80;1.00;;;;;;5013200;28;20460;-72
2023/07/17 04:48:45;;;;;;;0.60;0.10;;;19.00;1.00;;;;;;5013157;28;20448;-71
2023/07/17 04:51:13;;;;;;;0.70;0.50;;;19.00;1.00;;;;;;5013163;28;20556;-72
2023/07/17 04:53:42;;;;;;;0.60;0.10;;;19.10;1.00;;;;;;5013085;28;20582;-72
2023/07/17 04:56:10;;;;;;;0.60;0.20;;;19.00;1.00;;;;;;5013349;28;20444;-72
2023/07/17 04:58:37;;;;;;;0.60;0.10;;;19.10;1.00;;;;;;5013167;28;20981;-74
2023/07/17 05:01:05;;;;;;;0.60;0.10;;;19.30;1.00;;;;;;5014605;28;20507;-71
2023/07/17 05:03:33;;;;;;;0.60;0.10;;;19.40;1.00;;;;;;5015136;28;20440;-71
2023/07/17 05:06:01;;;;;;;1.03;0.67;;;19.50;1.00;;;;;;5016459;28;20452;-72
2023/07/17 05:08:29;;;;;;;0.60;0.10;;;19.60;1.00;;;;;;5017097;28;20850;-72
2023/07/17 05:11:00;;;;;;;0.60;0.10;;;19.60;1.00;;;;;;5008972;28;20556;-73
2023/07/17 05:13:28;;;;;;;0.60;0.20;;;19.70;1.00;;;;;;4997322;28;20484;-71
2023/07/17 05:15:56;;;;;;;0.60;0.10;;;19.80;1.00;;;;;;4997384;28;20473;-72
2023/07/17 05:18:24;;;;;;;0.60;0.10;;;19.80;1.00;;;;;;4997506;28;20457;-71
2023/07/17 05:20:52;;;;;;;0.60;0.10;;;20.00;1.00;;;;;;4997154;28;20465;-70
2023/07/17 05:23:20;;;;;;;0.60;0.10;;;20.00;1.00;;;;;;4997707;28;20519;-71
2023/07/17 05:25:56;;;;;;;0.60;0.10;;;20.10;1.00;;;;;;4997081;28;20503;-71
2023/07/17 05:28:27;;;;;;;0.60;0.20;;;20.30;1.00;;;;;;4997123;28;20625;-71
2023/07/17 05:30:56;;;;;;;0.60;0.20;;;20.30;1.00;;;;;;4996811;28;20473;-70
2023/07/17 05:33:25;;;;;;;0.60;0.10;;;20.30;1.00;;;;;;4994242;28;20534;-71
2023/07/17 05:35:53;;;;;;;0.60;0.10;;;20.20;1.00;;;;;;4994492;28;20516;-69
2023/07/17 05:38:21;;;;;;;0.70;0.43;;;20.30;1.00;;;;;;4994884;28;20433;-69
2023/07/17 05:40:49;;;;;;;0.60;0.20;;;20.20;1.00;;;;;;4995841;28;20476;-71
2023/07/17 05:43:17;;;;;;;2.03;1.50;;;20.20;1.00;;;;;;4998052;28;20537;-71
2023/07/17 05:45:46;;;;;;;0.60;0.10;;;20.30;1.00;;;;;;4996298;28;20535;-70
2023/07/17 05:48:14;;;;;;;0.70;0.30;;;20.30;1.00;;;;;;4996947;28;20910;-71
2023/07/17 05:50:42;;;;;;;0.70;0.40;;;20.50;1.00;;;;;;4996008;28;20453;-71
2023/07/17 05:53:10;;;;;;;0.60;0.20;;;20.40;1.00;;;;;;4995867;28;20485;-71
2023/07/17 05:55:38;;;;;;;0.60;0.20;;;20.40;1.00;;;;;;4996003;28;20446;-71
2023/07/17 05:58:05;;;;;;;1.00;0.50;;;20.40;1.00;;;;;;4995102;28;20448;-71
2023/07/17 06:00:33;;;;;;;0.70;0.20;;;20.50;1.00;;;;;;4993443;28;20453;-72
2023/07/17 06:03:03;;;;;;;0.60;0.10;;;;;;;;;;5012294;28;20456;-72
2023/07/17 06:05:32;;;;;;;0.60;0.20;;;20.50;1.00;;;;;;5012582;28;20906;-71
2023/07/17 06:08:00;;;;;;;0.60;0.20;;;20.60;1.00;;;;;;5012471;28;20436;-71
2023/07/17 06:10:28;;;;;;;0.60;0.20;;;;;;;;;;5012164;28;20532;-71
2023/07/17 06:12:56;;;;;;;0.60;0.10;;;20.80;1.00;;;;;;5011796;28;20481;-72
2023/07/17 06:15:23;;;;;;;0.60;0.10;;;21.00;1.00;;;;;;4996327;28;20475;-71
2023/07/17 06:17:51;;;;;;;0.60;0.10;;;21.00;1.00;;;;;;5000795;28;20447;-72
2023/07/17 06:20:21;;;;;;;0.60;0.10;;;21.20;1.00;;;;;;5001500;28;20833;-71
2023/07/17 06:22:49;;;;;;;4.07;3.83;;;21.20;1.00;;;;;;5001428;28;20462;-70
2023/07/17 06:25:17;;;;;;;0.60;0.20;;;21.30;1.00;;;;;;5000704;28;20541;-70
2023/07/17 06:27:45;;;;;;;6.50;3.87;;;21.10;1.00;;;;;;4999289;28;20537;-70
2023/07/17 06:30:13;;;;;;;0.60;0.20;;;21.20;1.00;;;;;;4998307;28;20809;-71
2023/07/17 06:32:41;;;;;;;0.60;0.10;;;21.20;1.00;;;;;;4999570;28;20873;-71
2023/07/17 06:35:10;;;;;;;0.80;0.30;;;21.20;1.00;;;;;;4997518;28;20991;-71
2023/07/17 06:37:39;;;;;;;0.70;0.30;;;21.30;1.00;;;;;;4995854;28;20453;-71
2023/07/17 06:40:10;;;;;;;0.60;0.10;;;21.30;1.00;;;;;;4995384;28;20545;-70
2023/07/17 06:42:39;;;;;;;0.60;0.20;;;21.30;1.00;;;;;;4996615;28;20461;-71
2023/07/17 06:45:09;;;;;;;0.60;0.13;;;21.30;1.00;;;;;;4998363;28;20485;-69
2023/07/17 06:47:37;;;;;;;0.70;0.33;;;21.40;1.00;;;;;;4996079;28;20557;-72
2023/07/17 06:50:06;;;;;;;0.60;0.10;;;21.40;1.00;;;;;;4995618;28;20970;-70
2023/07/17 06:52:34;;;;;;;0.70;0.30;;;21.30;1.00;;;;;;4995845;28;20566;-70
2023/07/17 06:55:03;;;;;;;0.70;0.20;;;21.40;1.00;;;;;;4995328;28;20487;-70
2023/07/17 06:57:33;;;;;;;0.60;0.20;;;21.40;1.00;;;;;;4995552;28;20540;-71
2023/07/17 07:00:01;;;;;;;0.60;0.10;;;21.50;1.00;;;;;;4995401;28;20470;-71
2023/07/17 07:02:29;;;;;;;0.90;0.60;;;;;;;;;;4994846;28;20536;-71
2023/07/17 07:04:57;;;;;;;0.80;0.30;;;21.20;1.00;;;;;;4995588;28;20445;-70
2023/07/17 07:07:25;;;;;;;1.00;0.70;;;21.20;1.00;;;;;;4995247;28;20450;-70
2023/07/17 07:09:53;;;;;;;0.97;0.80;;;;;;;;;;4995564;28;20485;-72
2023/07/17 07:12:23;;;;;;;0.60;0.17;;;21.40;1.00;;;;;;5013689;28;20896;-71
2023/07/17 07:14:51;;;;;;;0.60;0.10;;;21.40;1.00;;;;;;5014529;28;20482;-70
2023/07/17 07:17:19;;;;;;;0.60;0.10;;;21.50;1.00;;;;;;5014517;28;20891;-72
2023/07/17 07:19:47;;;;;;;1.57;0.50;;;21.60;1.00;;;;;;5015320;28;20483;-69
2023/07/17 07:22:15;;;;;;;0.60;0.10;;;21.40;1.00;;;;;;5015559;28;20839;-72
2023/07/17 07:24:46;;;;;;;0.60;0.20;;;21.30;1.00;;;;;;5014924;28;20442;-70
2023/07/17 07:27:14;;;;;;;0.80;0.40;;;21.40;1.00;;;;;;5013930;28;20491;-70
2023/07/17 07:29:43;;;;;;;8.43;1.07;;;21.40;1.00;;;;;;5013618;28;20448;-70
2023/07/17 07:32:11;;;;;;;0.60;0.20;;;21.50;1.00;;;;;;5013439;28;20514;-70
2023/07/17 07:34:39;;;;;;;2.00;1.90;;;;;;;;;;5013879;28;20487;-70
2023/07/17 07:37:07;;;;;;;0.70;0.40;;;21.80;1.00;;;;;;5014363;28;20480;-69
2023/07/17 07:39:35;;;;;;;0.60;0.10;;;22.00;1.00;;;;;;5014343;28;20532;-70
2023/07/17 07:42:03;;;;;;;0.60;0.20;;;22.10;1.00;;;;;;5013558;28;20501;-70
2023/07/17 07:44:31;;;;;;;0.60;0.10;;;22.20;1.00;;;;;;5013465;28;20881;-72
2023/07/17 07:47:00;;;;;;;0.60;0.20;;;22.20;1.00;;;;;;5014165;28;20527;-69
2023/07/17 07:49:28;;;;;;;2.40;1.30;;;22.20;1.00;;;;;;5014056;28;20454;-70
2023/07/17 07:51:55;;;;;;;0.87;0.70;;;21.90;1.00;;;;;;5013635;28;20878;-70
2023/07/17 07:54:23;;;;;;;4.40;1.23;;;21.80;1.00;;;;;;5013558;28;21032;-70
2023/07/17 07:56:51;;;;;;;0.60;0.20;;;21.80;1.00;;;;;;5013592;28;20445;-70
2023/07/17 07:59:19;;;;;;;0.60;0.10;;;21.90;1.00;;;;;;5013919;28;20892;-70
2023/07/17 08:01:47;;;;;;;0.60;0.10;;;21.90;1.00;;;;;;5013994;28;20968;-70
2023/07/17 08:04:16;;;;;;;0.60;0.20;;;21.90;1.00;;;;;;5013574;28;20912;-71
2023/07/17 08:06:44;;;;;;;0.70;0.30;;;22.20;1.00;;;;;;5013704;28;20448;-69
2023/07/17 08:09:12;;;;;;;0.67;0.20;;;22.20;1.00;;;;;;5014416;28;20481;-71
2023/07/17 08:11:40;;;;;;;0.60;0.20;;;22.30;1.00;;;;;;5000383;28;20660;-70
2023/07/17 08:14:08;;;;;;;1.10;0.70;;;;;;;;;;4980204;28;20472;-70
2023/07/17 08:16:36;;;;;;;0.70;0.10;;;22.50;1.00;;;;;;4974891;28;20454;-69
2023/07/17 08:19:04;;;;;;;0.60;0.23;;;22.50;1.00;;;;;;4974816;28;20493;-70
2023/07/17 08:21:33;;;;;;;0.67;0.10;;;22.50;1.00;;;;;;4974599;28;20542;-72
2023/07/17 08:24:02;;;;;;;0.67;0.20;;;22.60;1.00;;;;;;4974571;28;20529;-69
2023/07/17 08:26:30;;;;;;;0.70;0.10;;;22.70;1.00;;;;;;4974545;28;20443;-70
2023/07/17 08:29:00;;;;;;;1.80;0.87;;;22.60;1.00;;;;;;4974381;28;20439;-70
2023/07/17 08:31:28;;;;;;;0.60;0.20;;;22.50;1.00;;;;;;4974513;28;20498;-75
2023/07/17 08:33:56;;;;;;;0.80;0.40;;;22.50;1.00;;;;;;4974564;28;20447;-71
2023/07/17 08:36:26;;;;;;;0.60;0.10;;;22.40;1.00;;;;;;4974112;28;20575;-70
2023/07/17 08:38:56;;;;;;;1.53;0.77;;;22.40;1.00;;;;;;4973568;28;20542;-71
2023/07/17 08:41:24;;;;;;;0.60;0.10;;;22.40;1.00;;;;;;4974633;28;20500;-72
2023/07/17 08:43:53;;;;;;;0.60;0.10;;;22.40;1.00;;;;;;4974203;28;20447;-71
2023/07/17 08:46:20;;;;;;;0.70;0.20;;;22.50;1.00;;;;;;4974189;28;20445;-70
2023/07/17 08:48:49;;;;;;;0.70;0.17;;;22.60;1.00;;;;;;4974034;28;20457;-71
2023/07/17 08:51:18;;;;;;;0.70;0.10;;;22.70;1.00;;;;;;4973856;28;20476;-71
2023/07/17 08:53:47;;;;;;;0.67;0.20;;;22.80;1.00;;;;;;4973045;28;20890;-70
2023/07/17 08:56:17;;;;;;;0.70;0.10;;;23.00;1.00;;;;;;4973826;28;20510;-70
2023/07/17 08:58:45;;;;;;;0.70;0.10;;;23.30;1.00;;;;;;4974312;28;20447;-70
2023/07/17 09:01:13;;;;;;;0.70;0.10;;;23.40;1.00;;;;;;4979703;28;20864;-69
2023/07/17 09:03:42;;;;;;;1.27;0.70;;;;;;;;;;4993213;28;20448;-72
2023/07/17 09:06:14;;;;;;;0.90;0.70;;;;;;;;;;4993504;28;20502;-72
2023/07/17 09:08:44;;;;;;;1.17;0.30;;;23.10;1.00;;;;;;4993615;28;20456;-70
2023/07/17 09:11:12;;;;;;;1.00;0.33;;;23.00;1.00;;;;;;5002706;28;20536;-70
2023/07/17 09:13:45;;;;;;;0.70;0.10;;;22.90;1.00;;;;;;5012671;28;20442;-70
2023/07/17 09:16:15;;;;;;;1.17;1.07;;;23.00;1.00;;;;;;5013295;28;20497;-70
2023/07/17 09:18:43;;;;;;;0.70;0.30;;;;;;;;;;5012844;28;20446;-71
2023/07/17 09:21:13;;;;;;;0.70;0.10;;;23.20;1.00;;;;;;5012978;28;20488;-70
2023/07/17 09:23:44;;;;;;;0.70;0.10;;;23.20;1.00;;;;;;5012726;28;20499;-73
2023/07/17 09:26:13;;;;;;;1.37;1.00;;;23.40;1.00;;;;;;5012864;28;21019;-71
2023/07/17 09:28:48;;;;;;;0.70;0.10;;;23.50;1.00;;;;;;5012399;28;20445;-71
2023/07/17 09:31:23;;;;;;;0.70;0.10;;;23.60;1.00;;;;;;5012937;28;20880;-69
2023/07/17 09:33:52;;;;;;;0.90;0.40;;;23.60;1.00;;;;;;5012032;28;20446;-71
2023/07/17 09:36:21;;;;;;;0.70;0.20;;;23.90;1.00;;;;;;5012122;28;20482;-71
2023/07/17 09:38:53;;;;;;;4.43;1.50;;;24.00;1.00;;;;;;5012053;28;20549;-71
2023/07/17 09:41:23;;;;;;;2.60;1.47;;;23.90;1.00;;;;;;5012286;28;20467;-70
2023/07/17 09:44:02;;;;;;;0.70;0.10;;;23.90;1.00;;;;;;5011693;28;20955;-70
2023/07/17 09:46:32;;;;;;;0.80;0.33;;;23.60;1.00;;;;;;5011955;28;20470;-70
2023/07/17 09:49:00;;;;;;;0.70;0.10;;;23.60;1.00;;;;;;5012412;28;20443;-71
2023/07/17 09:51:29;;;;;;;0.90;0.90;;;23.50;1.00;;;;;;5011369;28;20561;-70
2023/07/17 09:53:59;;;;;;;2.40;0.77;;;23.40;1.00;;;;;;5012548;28;20446;-70
2023/07/17 09:56:29;;;;;;;1.03;0.50;;;23.40;1.00;;;;;;5011901;28;20556;-70
2023/07/17 09:59:08;;;;;;;5.57;1.70;;;23.40;1.00;;;;;;5012284;28;20500;-70
2023/07/17 10:01:38;;;;;;;1.17;0.80;;;23.40;1.00;;;;;;5012057;28;20560;-73
2023/07/17 10:04:07;;;;;;;1.03;0.73;;;23.40;1.00;;;;;;5012087;28;21009;-72
2023/07/17 10:06:38;;;;;;;0.90;0.77;;;23.40;1.00;;;;;;5012126;28;20485;-69
2023/07/17 10:09:09;;;;;;;1.30;1.17;;;23.50;1.00;;;;;;5012302;28;20453;-69
2023/07/17 10:11:38;;;;;;;0.70;0.20;;;23.60;1.00;;;;;;4998683;28;20468;-70
2023/07/17 10:14:07;;;;;;;1.87;1.07;;;23.70;1.00;;;;;;4992239;28;20448;-71
2023/07/17 10:16:36;;;;;;;0.70;0.20;;;23.70;1.00;;;;;;5022970;23;20834;-75
2023/07/17 10:19:05;;;;;;;0.70;0.10;;;;;;;;;;5019892;28;20551;-75
2023/07/17 10:21:33;;;;;;;0.80;0.30;;;;;;;;;;5018457;28;20466;-73
2023/07/17 10:24:03;;;;;;;0.87;0.67;;;23.90;1.00;;;;;;5019846;28;20509;-74
2023/07/17 10:26:31;;;;;;;0.70;0.20;;;24.00;1.00;;;;;;5020466;28;20470;-75
2023/07/17 10:29:02;;;;;;;1.00;0.57;;;23.90;1.00;;;;;;5019210;28;20438;-73
2023/07/17 10:31:32;;;;;;;0.70;0.10;;;24.00;1.00;;;;;;5016435;28;20454;-74
2023/07/17 10:34:05;;;;;;;0.80;0.30;;;24.10;1.00;;;;;;5014615;28;20443;-76
2023/07/17 10:36:40;;;;;;;0.90;0.50;;;24.20;1.00;;;;;;5013861;28;20534;-75
2023/07/17 10:39:09;;;;;;;0.77;0.40;;;24.10;1.00;;;;;;5013321;28;20454;-74
2023/07/17 10:41:37;;;;;;;0.70;0.20;;;24.20;1.00;;;;;;5013151;28;20447;-74
2023/07/17 10:44:07;;;;;;;0.97;0.30;;;;;;;;;;5012542;28;20510;-74
2023/07/17 10:46:48;;;;;;;0.70;0.10;;;24.70;1.00;;;;;;5013224;28;20466;-74
2023/07/17 10:49:17;;;;;;;5.60;0.97;;;24.80;1.00;;;;;;5013148;28;20439;-75
2023/07/17 10:51:46;;;;;;;0.70;0.20;;;24.80;1.00;;;;;;5012473;28;20455;-75
2023/07/17 10:54:15;;;;;;;0.70;0.20;;;;;;;;;;5013038;28;20487;-73
2023/07/17 10:56:45;;;;;;;3.73;1.33;;;25.00;1.00;;;;;;5012846;28;20490;-74
2023/07/17 10:59:14;;;;;;;0.80;0.20;;;25.10;1.00;;;;;;5012719;28;20440;-74
2023/07/17 11:01:42;;;;;;;0.70;0.20;;;;;;;;;;5012670;28;20455;-74
2023/07/17 11:04:12;;;;;;;3.80;1.03;;;25.30;1.00;;;;;;5016205;28;20539;-74
2023/07/17 11:06:40;;;;;;;4.23;1.23;;;25.10;1.00;;;;;;5016206;28;20460;-75
2023/07/17 11:09:08;;;;;;;0.70;0.10;;;24.90;1.00;;;;;;5016265;28;20539;-73
2023/07/17 11:11:37;;;;;;;2.03;1.07;;;;;;;;;;5016541;28;20773;-74
2023/07/17 11:14:05;;;;;;;1.80;1.03;;;24.30;1.00;;;;;;5016294;28;20501;-74
2023/07/17 11:16:34;;;;;;;0.80;0.53;;;25.20;1.00;;;;;;5015572;28;20497;-74
2023/07/17 11:19:04;;;;;;;1.73;0.57;;;25.30;1.00;;;;;;5017231;28;20479;-74
2023/07/17 11:21:34;;;;;;;0.70;0.10;;;25.30;1.00;;;;;;5017267;28;20444;-74
2023/07/17 11:24:07;;;;;;;0.70;0.20;;;25.30;1.00;;;;;;5015615;28;20475;-75
2023/07/17 11:26:35;;;;;;;0.70;0.10;;;;;;;;;;5015734;28;20555;-74
2023/07/17 11:29:03;;;;;;;2.50;1.07;;;25.50;1.00;;;;;;5016418;28;21172;-74
2023/07/17 11:31:33;;;;;;;0.70;0.30;;;25.60;1.00;;;;;;5021271;28;20452;-75
2023/07/17 11:34:05;;;;;;;0.70;0.20;;;25.60;1.00;;;;;;5019314;28;20518;-73
2023/07/17 11:36:41;;;;;;;1.43;0.30;;;25.80;1.00;;;;;;5018833;28;20511;-73
2023/07/17 11:39:10;;;;;;;1.00;0.80;;;25.80;1.00;;;;;;5019179;28;20817;-76
2023/07/17 11:41:45;;;;;;;2.07;0.40;;;25.90;1.00;;;;;;5018684;28;20480;-74
2023/07/17 11:44:13;;;;;;;0.70;0.20;;;;;;;;;;5017198;28;20443;-75
2023/07/17 11:46:41;;;;;;;0.70;0.20;;;25.90;1.00;;;;;;5017302;28;20999;-74
2023/07/17 11:49:10;;;;;;;0.70;0.10;;;25.70;1.00;;;;;;5017845;28;20484;-73
2023/07/17 11:51:43;;;;;;;1.60;1.50;;;25.60;1.00;;;;;;5015669;28;20993;-74
2023/07/17 11:54:14;;;;;;;0.70;0.10;;;;;;;;;;5015005;28;20466;-74
2023/07/17 11:56:43;;;;;;;0.70;0.10;;;25.70;1.00;;;;;;5015004;28;20487;-74
2023/07/17 11:59:18;;;;;;;0.70;0.10;;;25.80;1.00;;;;;;5015068;28;20515;-74
2023/07/17 12:01:46;;;;;;;2.07;0.73;;;25.80;1.00;;;;;;5014922;28;20444;-74
2023/07/17 12:04:21;;;;;;;1.67;0.87;;;25.90;1.00;;;;;;5015090;28;20444;-75
2023/07/17 12:06:52;;;;;;;1.13;0.83;;;25.70;1.00;;;;;;5014605;28;20482;-74
2023/07/17 12:09:20;;;;;;;0.70;0.10;;;25.70;1.00;;;;;;5015466;28;20510;-74
2023/07/17 12:11:49;;;;;;;0.70;0.10;;;;;;;;;;5000874;28;20946;-76
2023/07/17 12:14:18;;;;;;;1.33;0.30;;;26.00;1.00;;;;;;4995174;28;20445;-74
2023/07/17 12:16:47;;;;;;;0.70;0.10;;;26.20;1.00;;;;;;5009595;28;20535;-76
2023/07/17 12:19:16;;;;;;;0.70;0.10;;;26.20;1.00;;;;;;5014983;28;20456;-74
2023/07/17 12:21:44;;;;;;;2.03;0.43;;;26.30;1.00;;;;;;5014929;28;20869;-74
2023/07/17 12:24:13;;;;;;;2.13;0.40;;;26.10;1.00;;;;;;5015238;28;20443;-74
2023/07/17 12:26:41;;;;;;;0.80;0.30;;;26.10;1.00;;;;;;5014487;28;20476;-74
2023/07/17 12:29:10;;;;;;;1.37;0.80;;;26.20;1.00;;;;;;5014689;28;20494;-75
2023/07/17 12:31:38;;;;;;;0.70;0.20;;;26.20;1.00;;;;;;5015173;28;20479;-74
2023/07/17 12:34:08;;;;;;;0.80;0.37;;;26.20;1.00;;;;;;5015281;28;20448;-74
2023/07/17 12:36:36;;;;;;;0.70;0.10;;;26.40;1.00;;;;;;5014726;28;20566;-75
2023/07/17 12:39:13;;;;;;;1.17;0.50;;;26.30;1.00;;;;;;5014658;28;20522;-75
2023/07/17 12:41:42;;;;;;;1.23;0.60;;;26.20;1.00;;;;;;5014547;28;20456;-75
2023/07/17 12:44:10;;;;;;;1.97;0.77;;;25.80;1.00;;;;;;5014618;28;20498;-76
2023/07/17 12:46:38;;;;;;;1.63;0.83;;;25.60;1.00;;;;;;5014183;28;20468;-76
2023/07/17 12:49:06;;;;;;;0.90;0.57;;;25.50;1.00;;;;;;5015561;28;21024;-74
2023/07/17 12:51:34;;;;;;;0.70;0.10;;;25.60;1.00;;;;;;5014711;28;20463;-75
2023/07/17 12:54:02;;;;;;;3.33;0.87;;;25.60;1.00;;;;;;5014349;28;20451;-73
2023/07/17 12:56:32;;;;;;;0.70;0.10;;;25.80;1.00;;;;;;5014708;28;20470;-75
2023/07/17 12:59:00;;;;;;;0.70;0.20;;;25.90;1.00;;;;;;5014032;28;20487;-74
2023/07/17 13:01:28;;;;;;;0.70;0.20;;;25.80;1.00;;;;;;5015179;28;20531;-75
2023/07/17 13:03:56;;;;;;;0.70;0.10;;;;;;;;;;5014678;28;20452;-74
2023/07/17 13:06:25;;;;;;;0.70;0.20;;;;;;;;;;5014281;28;20464;-75
2023/07/17 13:08:53;;;;;;;2.03;0.40;;;26.20;1.00;;;;;;5014385;28;20518;-74
2023/07/17 13:11:22;;;;;;;0.90;0.30;;;26.00;1.00;;;;;;5014009;28;20926;-74
2023/07/17 13:13:51;;;;;;;1.30;0.43;;;26.00;1.00;;;;;;5013668;28;20451;-75
2023/07/17 13:16:19;;;;;;;2.00;1.13;;;;;;;;;;5013651;28;20491;-75
2023/07/17 13:18:47;;;;;;;0.70;0.27;;;26.00;1.00;;;;;;5014164;28;20829;-74
2023/07/17 13:21:16;;;;;;;0.80;0.30;;;;;;;;;;5014244;28;20471;-73
2023/07/17 13:23:44;;;;;;;0.70;0.20;;;25.80;1.00;;;;;;5014261;28;20455;-74
2023/07/17 13:26:12;;;;;;;0.70;0.20;;;25.70;1.00;;;;;;5013792;28;20547;-75
2023/07/17 13:28:41;;;;;;;1.27;0.73;;;;;;;;;;5014602;28;20455;-74
2023/07/17 13:31:10;;;;;;;1.10;0.53;;;25.70;1.00;;;;;;5014003;28;20518;-73
2023/07/17 13:33:39;;;;;;;1.40;0.97;;;;;;;;;;5015137;28;20444;-75
2023/07/17 13:36:08;;;;;;;0.70;0.20;;;;;;;;;;5015185;28;20459;-74
2023/07/17 13:38:36;;;;;;;0.70;0.20;;;25.60;1.00;;;;;;5024073;28;20506;-74
2023/07/17 13:41:12;;;;;;;0.80;0.30;;;25.70;1.00;;;;;;5026084;28;20456;-75
2023/07/17 13:43:40;;;;;;;0.70;0.10;;;25.70;1.00;;;;;;5022947;28;20444;-76
2023/07/17 13:46:09;;;;;;;0.70;0.10;;;26.00;1.00;;;;;;5019545;28;20986;-74
2023/07/17 13:48:38;;;;;;;1.87;0.87;;;26.20;1.00;;;;;;5016007;28;20443;-75
2023/07/17 13:51:06;;;;;;;0.83;0.50;;;;;;;;;;5015613;28;20935;-75
2023/07/17 13:53:34;;;;;;;3.20;0.90;;;26.20;1.00;;;;;;5016149;28;20440;-74
2023/07/17 13:56:02;;;;;;;1.57;0.30;;;26.20;1.00;;;;;;5023559;28;20468;-75
2023/07/17 13:58:30;;;;;;;0.70;0.10;;;;;;;;;;5025012;28;20480;-75
2023/07/17 14:00:58;;;;;;;1.20;0.63;;;;;;;;;;5024636;28;20448;-74
2023/07/17 14:03:27;;;;;;;0.70;0.17;;;26.40;1.00;;;;;;5024130;28;20452;-74
2023/07/17 14:05:56;;;;;;;1.10;0.50;;;;;;;;;;5026688;28;20490;-74
2023/07/17 14:08:24;;;;;;;0.80;0.33;;;;;;;;;;5025790;28;20447;-73
2023/07/17 14:10:52;;;;;;;4.00;0.80;;;26.80;1.00;;;;;;5018378;28;20441;-75
2023/07/17 14:13:20;;;;;;;0.80;0.40;;;26.80;1.00;;;;;;5002449;28;20441;-74
2023/07/17 14:15:48;;;;;;;2.60;0.97;;;26.60;1.00;;;;;;5000882;28;20558;-74
2023/07/17 14:18:16;;;;;;;50.77;5.60;;;;;;;;;;5015453;28;20479;-75
2023/07/17 14:20:45;;;;;;;1.60;0.80;;;26.60;1.00;;;;;;5015255;28;20539;-74
2023/07/17 14:23:13;;;;;;;1.00;0.40;;;26.50;1.00;;;;;;5015113;28;20450;-75
2023/07/17 14:25:41;;;;;;;2.00;1.10;;;26.60;1.00;;;;;;5014438;28;20590;-74
2023/07/17 14:28:09;;;;;;;1.63;0.57;;;26.50;1.00;;;;;;5013213;28;20794;-75
2023/07/17 14:30:37;;;;;;;0.70;0.10;;;26.50;1.00;;;;;;5013985;28;20543;-74
2023/07/17 14:33:05;;;;;;;1.27;0.87;;;26.40;1.00;;;;;;5013369;28;20475;-75
2023/07/17 14:35:33;;;;;;;1.63;0.87;;;26.20;1.00;;;;;;5013881;28;20476;-75
2023/07/17 14:38:02;;;;;;;0.90;0.43;;;26.20;1.00;;;;;;5015678;28;20514;-75
2023/07/17 14:40:31;;;;;;;0.70;0.10;;;;;;;;;;5017662;28;20451;-73
2023/07/17 14:42:59;;;;;;;0.90;0.63;;;;;;;;;;5016944;28;20452;-73
2023/07/17 14:45:27;;;;;;;1.10;0.77;;;26.60;1.00;;;;;;5016941;28;20460;-75
2023/07/17 14:47:55;;;;;;;0.70;0.20;;;;;;;;;;5018237;28;20452;-75
2023/07/17 14:50:23;;;;;;;0.70;0.10;;;26.60;1.00;;;;;;5017622;28;20447;-75
2023/07/17 14:52:51;;;;;;;0.77;0.33;;;;;;;;;;5017369;28;20455;-74
2023/07/17 14:55:21;;;;;;;0.70;0.20;;;26.70;1.00;;;;;;5016507;28;20551;-74
2023/07/17 14:57:49;;;;;;;0.70;0.10;;;27.00;1.00;;;;;;5017101;28;20471;-76
2023/07/17 15:00:18;;;;;;;0.70;0.20;;;27.00;1.00;;;;;;5017963;28;20467;-76
2023/07/17 15:02:46;;;;;;;0.80;0.30;;;27.10;1.00;;;;;;5018350;28;20521;-75
2023/07/17 15:05:14;;;;;;;1.00;0.50;;;27.20;1.00;;;;;;5016966;28;20484;-75
2023/07/17 15:07:46;;;;;;;0.70;0.20;;;27.10;1.00;;;;;;5017039;28;20448;-75
2023/07/17 15:10:14;;;;;;;0.70;0.30;;;26.70;1.00;;;;;;5016617;28;20473;-75
2023/07/17 15:12:43;;;;;;;0.70;0.10;;;26.70;1.00;;;;;;5017124;28;20510;-75
2023/07/17 15:15:11;;;;;;;0.90;0.20;;;26.80;1.00;;;;;;5016806;28;20452;-75
2023/07/17 15:17:39;;;;;;;1.20;0.70;;;;;;;;;;5016691;28;20471;-76
2023/07/17 15:20:08;;;;;;;1.07;0.90;;;27.00;1.00;;;;;;5016902;28;20480;-74
2023/07/17 15:22:39;;;;;;;0.70;0.10;;;27.10;1.00;;;;;;5015914;28;20451;-75
2023/07/17 15:25:08;;;;;;;1.23;0.60;;;27.20;1.00;;;;;;5016473;28;20462;-75
2023/07/17 15:27:37;;;;;;;0.80;0.40;;;27.10;1.00;;;;;;5016156;28;20947;-74
2023/07/17 15:30:07;;;;;;;1.63;0.67;;;27.00;1.00;;;;;;5016925;28;20483;-75
2023/07/17 15:32:35;;;;;;;0.70;0.20;;;27.00;1.00;;;;;;5015963;28;20927;-75
2023/07/17 15:35:04;;;;;;;0.80;0.43;;;;;;;;;;5016330;28;20455;-75
2023/07/17 15:37:32;;;;;;;0.70;0.10;;;;;;;;;;5016731;28;20551;-75
2023/07/17 15:40:00;;;;;;;0.70;0.20;;;;;;;;;;5015823;28;20484;-76
2023/07/17 15:42:29;;;;;;;0.70;0.27;;;;;;;;;;5015447;28;20486;-75
2023/07/17 15:44:57;;;;;;;3.17;1.67;;;27.30;1.00;;;;;;5015995;28;20439;-76
2023/07/17 15:47:26;;;;;;;1.37;1.03;;;27.40;1.00;;;;;;5016277;28;20470;-76
2023/07/17 15:49:55;;;;;;;2.90;1.40;;;;;;;;;;5015098;28;20444;-75
2023/07/17 15:52:23;;;;;;;1.93;0.60;;;;;;;;;;5016004;28;20455;-76
2023/07/17 15:54:51;;;;;;;0.73;0.33;;;27.30;1.00;;;;;;5016921;28;20486;-75
2023/07/17 15:57:19;;;;;;;1.47;0.40;;;27.40;1.00;;;;;;5016741;28;20474;-76
2023/07/17 15:59:46;;;;;;;0.70;0.10;;;27.40;1.00;;;;;;5016976;28;20476;-75
2023/07/17 16:02:14;;;;;;;0.70;0.10;;;27.50;1.00;;;;;;5016696;28;20479;-77
2023/07/17 16:04:44;;;;;;;0.80;0.37;;;27.70;1.00;;;;;;5017519;28;20488;-75
2023/07/17 16:07:12;;;;;;;0.83;0.33;;;27.50;1.00;;;;;;5017950;28;20881;-75
2023/07/17 16:09:40;;;;;;;0.80;0.27;;;;;;;;;;5019539;28;20455;-76
2023/07/17 16:12:09;;;;;;;1.53;1.13;;;27.10;1.00;;;;;;5006769;28;20447;-75
2023/07/17 16:14:42;;;;;;;0.70;0.20;;;27.10;1.00;;;;;;4996457;28;20532;-75
2023/07/17 16:17:11;;;;;;;0.70;0.10;;;27.10;1.00;;;;;;5024011;23;20483;-73
2023/07/17 16:19:44;;;;;;;0.70;0.10;;;26.80;1.00;;;;;;5015355;28;20479;-75
2023/07/17 16:22:16;;;;;;;0.70;0.30;;;27.00;1.00;;;;;;5014219;28;20444;-74
2023/07/17 16:24:44;;;;;;;0.97;0.87;;;26.80;1.00;;;;;;5013714;28;20559;-73
2023/07/17 16:27:13;;;;;;;0.70;0.20;;;26.80;1.00;;;;;;5013630;28;20470;-73
2023/07/17 16:29:41;;;;;;;0.70;0.40;;;26.90;1.00;;;;;;5014384;28;20513;-74
2023/07/17 16:32:09;;;;;;;0.70;0.20;;;26.90;1.00;;;;;;5016724;28;20448;-73
2023/07/17 16:34:37;;;;;;;1.03;0.40;;;27.10;1.00;;;;;;5020232;28;20483;-73
2023/07/17 16:37:07;;;;;;;1.73;0.60;;;27.10;1.00;;;;;;5020074;28;20615;-74
2023/07/17 16:39:36;;;;;;;1.07;0.40;;;27.00;1.00;;;;;;5019775;28;20486;-74
2023/07/17 16:42:04;;;;;;;1.00;0.43;;;27.00;1.00;;;;;;5019000;28;20487;-74
2023/07/17 16:44:32;;;;;;;2.30;1.33;;;26.90;1.00;;;;;;5015157;28;20459;-73
2023/07/17 16:47:00;;;;;;;1.73;0.93;;;26.90;1.00;;;;;;5024605;28;21193;-74
2023/07/17 16:49:29;;;;;;;0.70;0.30;;;27.00;1.00;;;;;;5034232;28;20439;-74
2023/07/17 16:51:57;;;;;;;0.70;0.20;;;27.00;1.00;;;;;;5034503;28;20443;-74
2023/07/17 16:54:26;;;;;;;1.17;0.40;;;27.30;1.00;;;;;;5035367;28;20454;-75
2023/07/17 16:56:54;;;;;;;0.83;0.70;;;27.60;1.00;;;;;;5034764;28;20520;-76
2023/07/17 16:59:25;;;;;;;1.20;0.83;;;;;;;;;;5035319;28;20510;-75
2023/07/17 17:01:56;;;;;;;1.53;0.53;;;27.70;1.00;;;;;;5034292;28;20449;-75
2023/07/17 17:04:24;;;;;;;0.70;0.20;;;27.60;1.00;;;;;;5034986;28;20533;-74
2023/07/17 17:06:52;;;;;;;2.10;0.60;;;27.80;1.00;;;;;;5034341;28;20836;-75
2023/07/17 17:09:20;;;;;;;0.90;0.43;;;27.60;1.00;;;;;;5034095;28;20482;-74
2023/07/17 17:11:50;;;;;;;0.80;0.47;;;27.50;1.00;;;;;;5018631;28;20523;-73
2023/07/17 17:14:18;;;;;;;1.73;0.77;;;27.50;1.00;;;;;;5013961;28;20446;-72
2023/07/17 17:16:46;;;;;;;0.70;0.10;;;27.20;1.00;;;;;;5013181;28;20879;-73